createdAt,value
2022-08-03T00:02:20.318Z,5.70
2022-08-03T00:04:48.296Z,6.15
2022-08-03T00:07:16.338Z,5.97
2022-08-03T00:09:44.208Z,6.75
2022-08-03T00:12:11.682Z,5.78
2022-08-03T00:14:39.194Z,6.13
2022-08-03T00:17:07.505Z,5.90
2022-08-03T00:19:34.841Z,6.45
2022-08-03T00:22:02.215Z,5.70
2022-08-03T00:24:31.459Z,6.05
2022-08-03T00:26:58.588Z,6.07
2022-08-03T00:29:26.011Z,6.78
2022-08-03T00:31:59.361Z,6.35
2022-08-03T00:34:36.639Z,5.70
2022-08-03T00:37:18.879Z,6.18
2022-08-03T00:39:48.150Z,5.88
2022-08-03T00:42:16.377Z,6.82
2022-08-03T00:44:44.937Z,6.78
2022-08-03T00:47:13.372Z,5.80
2022-08-03T00:49:42.332Z,6.43
2022-08-03T00:52:15.154Z,7.05
2022-08-03T00:57:09.710Z,6.35
2022-08-03T00:59:39.779Z,5.25
2022-08-03T01:02:07.112Z,5.97
2022-08-03T01:04:34.383Z,6.43
2022-08-03T01:07:15.737Z,6.22
2022-08-03T01:10:01.965Z,5.95
2022-08-03T01:12:52.368Z,6.45
2022-08-03T01:15:33.717Z,6.03
2022-08-03T01:18:10.472Z,6.13
2022-08-03T01:20:43.820Z,5.38
2022-08-03T01:23:32.298Z,6.13
2022-08-03T01:26:14.583Z,6.18
2022-08-03T01:28:51.195Z,5.70
2022-08-03T01:31:26.518Z,5.75
2022-08-03T01:33:59.586Z,6.18
2022-08-03T01:36:32.512Z,6.38
2022-08-03T01:39:09.555Z,5.93
2022-08-03T01:41:44.671Z,5.65
2022-08-03T01:44:27.290Z,6.05
2022-08-03T01:47:01.393Z,5.85
2022-08-03T01:49:32.429Z,5.22
2022-08-03T01:52:04.985Z,6.28
2022-08-03T01:54:41.056Z,5.75
2022-08-03T01:57:09.823Z,5.70
2022-08-03T01:59:38.981Z,6.18
2022-08-03T02:02:28.566Z,6.22
2022-08-03T02:04:57.787Z,6.00
2022-08-03T02:07:27.048Z,5.82
2022-08-03T02:09:55.805Z,5.68
2022-08-03T02:12:27.012Z,6.32
2022-08-03T02:15:16.426Z,6.07
2022-08-03T02:17:46.006Z,6.00
2022-08-03T02:20:13.845Z,5.63
2022-08-03T02:22:42.677Z,6.78
2022-08-03T02:25:12.077Z,6.65
2022-08-03T02:27:44.203Z,6.25
2022-08-03T02:30:13.682Z,6.07
2022-08-03T02:32:44.323Z,5.80
2022-08-03T02:35:13.586Z,6.60
2022-08-03T02:37:49.817Z,5.75
2022-08-03T02:40:19.285Z,6.10
2022-08-03T02:42:48.849Z,6.13
2022-08-03T02:45:18.883Z,6.32
2022-08-03T02:47:54.250Z,6.43
2022-08-03T02:50:24.347Z,7.05
2022-08-03T02:52:54.396Z,7.00
2022-08-03T02:55:24.194Z,7.32
2022-08-03T02:57:53.012Z,6.38
2022-08-03T03:00:27.897Z,6.75
2022-08-03T03:03:01.012Z,6.38
2022-08-03T03:05:56.115Z,7.45
2022-08-03T03:08:28.118Z,6.78
2022-08-03T03:11:04.638Z,6.18
2022-08-03T03:13:35.361Z,6.18
2022-08-03T03:16:09.017Z,6.13
2022-08-03T03:18:42.382Z,6.38
2022-08-03T03:21:12.221Z,6.45
2022-08-03T03:23:43.802Z,5.95
2022-08-03T03:28:43.738Z,6.65
2022-08-03T03:31:11.954Z,6.25
2022-08-03T03:33:45.155Z,5.72
2022-08-03T03:36:15.249Z,5.30
2022-08-03T03:38:46.064Z,5.88
2022-08-03T03:41:15.851Z,5.38
2022-08-03T03:49:11.859Z,5.20
2022-08-03T03:51:47.001Z,5.45
2022-08-03T04:05:18.594Z,4.70
2022-08-03T04:08:37.568Z,5.00
2022-08-03T04:11:16.904Z,4.22
2022-08-03T04:14:01.749Z,4.38
2022-08-03T04:16:33.911Z,4.47
2022-08-03T04:19:08.019Z,4.47
2022-08-03T04:21:38.166Z,4.43
2022-08-03T04:24:09.196Z,4.13
2022-08-03T04:26:39.750Z,5.00
2022-08-03T04:29:09.470Z,3.35
2022-08-03T04:31:38.601Z,4.32
2022-08-03T04:34:06.129Z,4.50
2022-08-03T04:36:38.587Z,4.63
2022-08-03T04:39:19.984Z,4.20
2022-08-03T04:42:07.244Z,4.13
2022-08-03T04:44:41.892Z,4.60
2022-08-03T04:47:09.273Z,4.55
2022-08-03T04:49:40.470Z,4.45
2022-08-03T04:52:08.861Z,4.43
2022-08-03T04:54:48.820Z,4.32
2022-08-03T04:57:23.078Z,4.30
2022-08-03T05:00:02.479Z,4.20
2022-08-03T05:02:33.721Z,4.05
2022-08-03T05:05:01.063Z,4.07
2022-08-03T05:07:34.103Z,4.57
2022-08-03T05:10:15.113Z,4.00
2022-08-03T05:12:48.451Z,4.47
2022-08-03T05:15:16.143Z,4.10
2022-08-03T05:17:43.643Z,4.38
2022-08-03T05:20:35.368Z,4.28
2022-08-03T05:23:04.075Z,3.92
2022-08-03T05:25:31.126Z,4.20
2022-08-03T05:27:58.232Z,3.90
2022-08-03T05:30:30.789Z,4.20
2022-08-03T05:33:06.689Z,3.97
2022-08-03T05:36:02.519Z,4.07
2022-08-03T05:38:28.913Z,3.90
2022-08-03T05:41:22.066Z,4.88
2022-08-03T05:43:49.000Z,4.22
2022-08-03T05:46:16.128Z,4.45
2022-08-03T05:48:43.631Z,4.30
2022-08-03T05:51:13.941Z,4.40
2022-08-03T05:53:43.197Z,4.03
2022-08-03T05:56:14.530Z,4.78
2022-08-03T05:58:48.745Z,4.68
2022-08-03T06:01:17.490Z,4.38
2022-08-03T06:03:46.065Z,4.43
2022-08-03T06:06:14.039Z,4.80
2022-08-03T06:08:42.826Z,4.90
2022-08-03T06:11:10.050Z,4.72
2022-08-03T06:13:37.819Z,4.47
2022-08-03T06:16:05.591Z,3.33
2022-08-03T06:18:32.766Z,3.22
2022-08-03T06:21:14.123Z,3.20
2022-08-03T06:23:53.226Z,3.25
2022-08-03T06:26:25.004Z,3.50
2022-08-03T06:28:54.198Z,3.65
2022-08-03T06:31:32.848Z,3.88
2022-08-03T06:34:33.596Z,3.20
2022-08-03T06:36:52.475Z,4.07
2022-08-03T06:39:20.641Z,3.30
2022-08-03T06:44:18.270Z,3.55
2022-08-03T06:46:45.395Z,3.28
2022-08-03T06:49:12.597Z,3.67
2022-08-03T06:52:05.890Z,2.88
2022-08-03T06:54:32.920Z,3.05
2022-08-03T06:57:01.130Z,3.03
2022-08-03T07:00:07.695Z,2.80
2022-08-03T07:02:19.337Z,4.38
2022-08-03T07:04:50.693Z,3.15
2022-08-03T07:07:19.612Z,3.50
2022-08-03T07:09:58.525Z,3.17
2022-08-03T07:12:31.082Z,3.10
2022-08-03T07:15:01.744Z,2.90
2022-08-03T07:17:35.229Z,3.17
2022-08-03T07:20:16.437Z,3.42
2022-08-03T07:22:45.164Z,2.83
2022-08-03T07:25:12.425Z,3.30
2022-08-03T07:27:47.774Z,2.75
2022-08-03T07:30:19.082Z,3.13
2022-08-03T07:32:50.350Z,2.65
2022-08-03T07:37:54.803Z,3.35
2022-08-03T07:40:23.679Z,3.22
2022-08-03T07:42:57.066Z,3.20
2022-08-03T07:45:26.867Z,3.03
2022-08-03T07:47:55.694Z,3.85
2022-08-03T07:50:24.782Z,3.47
2022-08-03T07:52:56.263Z,3.80
2022-08-03T07:55:25.939Z,4.85
2022-08-03T07:58:12.626Z,3.72
2022-08-03T08:00:40.049Z,3.53
2022-08-03T08:03:09.410Z,3.85
2022-08-03T08:05:37.828Z,3.28
2022-08-03T08:08:05.479Z,3.83
2022-08-03T08:10:33.332Z,3.90
2022-08-03T08:13:01.875Z,3.10
2022-08-03T08:15:30.583Z,3.10
2022-08-03T08:18:03.779Z,3.50
2022-08-03T08:20:37.941Z,3.35
2022-08-03T08:23:41.660Z,3.42
2022-08-03T08:26:07.204Z,3.20
2022-08-03T08:28:36.252Z,4.25
2022-08-03T08:31:03.619Z,3.20
2022-08-03T08:34:03.693Z,3.05
2022-08-03T08:36:28.986Z,3.58
2022-08-03T08:38:58.276Z,3.38
2022-08-03T08:41:32.356Z,3.45
2022-08-03T08:44:00.353Z,3.30
2022-08-03T08:46:38.856Z,3.67
2022-08-03T08:49:10.957Z,3.55
2022-08-03T08:51:59.047Z,3.85
2022-08-03T08:54:36.325Z,3.88
2022-08-03T08:57:21.100Z,3.53
2022-08-03T09:00:00.197Z,3.60
2022-08-03T09:02:30.667Z,3.95
2022-08-03T09:05:05.305Z,3.53
2022-08-03T09:07:35.216Z,3.65
2022-08-03T09:10:12.755Z,3.30
2022-08-03T09:12:46.747Z,3.55
2022-08-03T09:15:24.356Z,4.88
2022-08-03T09:18:02.295Z,3.58
2022-08-03T09:20:32.387Z,3.70
2022-08-03T09:23:51.802Z,3.35
2022-08-03T09:26:00.382Z,2.92
2022-08-03T09:29:00.435Z,3.70
2022-08-03T09:31:43.117Z,2.78
2022-08-03T09:34:13.164Z,2.80
2022-08-03T09:36:52.947Z,3.35
2022-08-03T09:42:08.373Z,3.20
2022-08-03T09:44:42.467Z,3.38
2022-08-03T09:47:13.647Z,2.80
2022-08-03T09:49:58.240Z,3.03
2022-08-03T09:52:39.175Z,3.00
2022-08-03T09:56:05.213Z,2.90
2022-08-03T09:58:14.717Z,3.53
2022-08-03T10:01:04.078Z,3.13
2022-08-03T10:04:03.064Z,3.42
2022-08-03T10:06:32.596Z,3.08
2022-08-03T10:11:55.107Z,3.20
2022-08-03T10:14:23.756Z,3.13
2022-08-03T10:16:51.804Z,2.95
2022-08-03T10:19:20.575Z,4.03
2022-08-03T10:21:55.787Z,3.78
2022-08-03T10:24:30.990Z,3.50
2022-08-03T10:27:12.698Z,3.28
2022-08-03T10:29:51.818Z,3.10
2022-08-03T10:32:37.476Z,3.50
2022-08-03T10:35:23.640Z,4.40
2022-08-03T10:38:27.316Z,3.85
2022-08-03T10:40:59.124Z,3.58
2022-08-03T10:43:33.902Z,3.33
2022-08-03T10:46:04.252Z,3.03
2022-08-03T10:48:34.125Z,3.17
2022-08-03T10:51:07.025Z,3.55
2022-08-03T10:53:38.079Z,3.60
2022-08-03T10:56:44.357Z,3.03
2022-08-03T10:59:12.219Z,3.17
2022-08-03T11:01:59.945Z,3.67
2022-08-03T11:04:30.322Z,3.03
2022-08-03T11:07:22.781Z,3.47
2022-08-03T11:09:52.692Z,3.00
2022-08-03T11:12:21.690Z,3.72
2022-08-03T11:15:00.375Z,3.40
2022-08-03T11:17:27.658Z,4.15
2022-08-03T11:19:57.736Z,3.38
2022-08-03T11:22:26.100Z,3.53
2022-08-03T11:24:57.378Z,3.63
2022-08-03T11:27:32.254Z,3.30
2022-08-03T11:30:11.774Z,3.42
2022-08-03T11:32:40.249Z,3.40
2022-08-03T11:35:17.826Z,3.65
2022-08-03T11:38:03.361Z,3.80
2022-08-03T11:40:41.697Z,2.88
2022-08-03T11:43:30.426Z,3.47
2022-08-03T11:46:06.625Z,3.20
2022-08-03T11:48:51.032Z,3.85
2022-08-03T11:51:24.332Z,4.03
2022-08-03T11:54:03.948Z,3.58
2022-08-03T11:56:51.519Z,3.35
2022-08-03T11:59:22.165Z,3.22
2022-08-03T12:01:50.062Z,3.38
2022-08-03T12:04:17.291Z,3.80
2022-08-03T12:07:01.513Z,3.35
2022-08-03T12:09:29.707Z,3.92
2022-08-03T12:12:00.581Z,3.60
2022-08-03T12:14:48.791Z,3.75
2022-08-03T12:17:19.547Z,3.65
2022-08-03T12:19:46.810Z,4.50
2022-08-03T12:22:14.127Z,3.60
2022-08-03T12:24:46.909Z,3.17
2022-08-03T12:27:24.221Z,3.60
2022-08-03T12:29:58.507Z,3.72
2022-08-03T12:32:28.451Z,3.30
2022-08-03T12:35:01.916Z,3.45
2022-08-03T12:37:31.379Z,3.50
2022-08-03T12:40:09.763Z,3.45
2022-08-03T12:42:40.066Z,3.28
2022-08-03T12:45:27.897Z,3.30
2022-08-03T12:48:02.293Z,3.75
2022-08-03T12:50:31.378Z,3.78
2022-08-03T12:53:01.741Z,3.92
2022-08-03T12:55:57.184Z,3.55
2022-08-03T12:58:34.320Z,3.90
2022-08-03T13:01:10.041Z,3.28
2022-08-03T13:03:50.286Z,3.65
2022-08-03T13:09:05.611Z,3.75
2022-08-03T13:11:55.868Z,3.92
2022-08-03T13:14:20.754Z,3.50
2022-08-03T13:16:49.331Z,3.85
2022-08-03T13:19:16.678Z,3.83
2022-08-03T13:22:01.851Z,3.92
2022-08-03T13:24:33.075Z,3.80
2022-08-03T13:27:00.748Z,3.63
2022-08-03T13:29:47.919Z,3.20
2022-08-03T13:32:15.018Z,3.15
2022-08-03T13:34:42.183Z,3.85
2022-08-03T13:37:10.271Z,3.67
2022-08-03T13:39:57.205Z,4.00
2022-08-03T13:42:25.289Z,3.78
2022-08-03T13:44:52.490Z,3.30
2022-08-03T13:47:20.459Z,3.53
2022-08-03T13:49:59.492Z,3.92
2022-08-03T13:52:28.382Z,3.45
2022-08-03T13:54:55.472Z,4.35
2022-08-03T13:58:02.871Z,3.90
2022-08-03T14:00:10.500Z,3.50
2022-08-03T14:02:38.595Z,3.38
2022-08-03T14:05:06.151Z,3.95
2022-08-03T14:07:33.329Z,4.05
2022-08-03T14:10:02.051Z,3.83
2022-08-03T14:12:30.636Z,4.18
2022-08-03T14:14:59.742Z,3.65
2022-08-03T14:17:42.039Z,4.57
2022-08-03T14:20:36.609Z,3.25
2022-08-03T14:23:03.903Z,3.50
2022-08-03T14:25:43.109Z,4.28
2022-08-03T14:28:19.307Z,3.83
2022-08-03T14:30:46.398Z,3.25
2022-08-03T14:33:13.685Z,3.17
2022-08-03T14:35:41.004Z,3.60
2022-08-03T14:38:08.258Z,3.17
2022-08-03T14:40:35.330Z,4.45
2022-08-03T14:43:02.728Z,3.50
2022-08-03T14:45:29.891Z,3.45
2022-08-03T14:50:28.571Z,3.40
2022-08-03T14:50:50.185Z,3.72
2022-08-03T14:53:18.364Z,3.83
2022-08-03T14:55:50.846Z,3.72
2022-08-03T14:58:23.370Z,3.70
2022-08-03T15:00:52.146Z,3.88
2022-08-03T15:03:23.826Z,4.30
2022-08-03T15:05:56.344Z,3.75
2022-08-03T15:10:51.302Z,3.60
2022-08-03T15:13:19.693Z,3.97
2022-08-03T15:15:48.043Z,3.65
2022-08-03T15:18:15.421Z,4.45
2022-08-03T15:20:45.384Z,3.45
2022-08-03T15:23:14.464Z,3.63
2022-08-03T15:26:32.242Z,4.18
2022-08-03T15:28:30.324Z,3.58
2022-08-03T15:30:57.404Z,4.53
2022-08-03T15:33:24.598Z,3.70
2022-08-03T15:35:52.145Z,3.85
2022-08-03T15:38:19.939Z,3.97
2022-08-03T15:40:46.987Z,4.15
2022-08-03T15:43:14.217Z,3.90
2022-08-03T15:45:43.050Z,4.32
2022-08-03T15:48:10.052Z,3.90
2022-08-03T15:50:37.185Z,4.35
2022-08-03T15:53:04.928Z,3.90
2022-08-03T15:55:32.281Z,4.15
2022-08-03T15:59:09.157Z,3.40
2022-08-03T16:00:46.944Z,4.10
2022-08-03T16:03:14.073Z,3.85
2022-08-03T16:05:44.717Z,3.70
2022-08-03T16:08:13.864Z,4.10
2022-08-03T16:10:43.262Z,5.22
2022-08-03T16:13:10.377Z,4.47
2022-08-03T16:15:39.042Z,4.78
2022-08-03T16:18:07.505Z,4.20
2022-08-03T16:20:35.308Z,5.45
2022-08-03T16:23:11.072Z,4.40
2022-08-03T16:25:40.804Z,4.78
2022-08-03T16:28:13.404Z,5.57
2022-08-03T16:30:43.927Z,4.80
2022-08-03T16:33:16.722Z,5.35
2022-08-03T16:35:46.605Z,5.40
2022-08-03T16:38:18.613Z,4.95
2022-08-03T16:40:51.814Z,4.63
2022-08-03T16:43:22.410Z,5.40
2022-08-03T16:45:49.916Z,4.70
2022-08-03T16:48:18.814Z,4.47
2022-08-03T16:50:46.420Z,4.55
2022-08-03T16:53:16.788Z,4.53
2022-08-03T16:55:51.867Z,4.13
2022-08-03T16:58:41.582Z,4.88
2022-08-03T17:01:23.581Z,4.18
2022-08-03T17:04:03.309Z,4.53
2022-08-03T17:06:44.676Z,4.90
2022-08-03T17:09:15.587Z,4.82
2022-08-03T17:11:48.796Z,5.18
2022-08-03T17:14:21.902Z,7.18
2022-08-03T17:16:54.256Z,6.78
2022-08-03T17:19:24.526Z,5.30
2022-08-03T17:22:10.616Z,5.07
2022-08-03T17:24:45.991Z,4.30
2022-08-03T17:28:49.606Z,4.20
2022-08-03T17:30:11.889Z,4.00
2022-08-03T17:32:52.482Z,4.60
2022-08-03T17:35:36.922Z,4.53
2022-08-03T17:38:12.014Z,4.50
2022-08-03T17:40:47.935Z,4.68
2022-08-03T17:44:14.474Z,4.47
2022-08-03T17:46:11.142Z,4.28
2022-08-03T17:48:41.347Z,4.75
2022-08-03T17:51:31.868Z,4.97
2022-08-03T17:54:18.011Z,5.10
2022-08-03T17:56:48.498Z,4.47
2022-08-03T17:59:52.758Z,4.90
2022-08-03T18:03:13.089Z,4.55
2022-08-03T18:06:11.342Z,4.72
2022-08-03T18:08:34.189Z,4.10
2022-08-03T18:11:14.249Z,4.45
2022-08-03T18:13:53.515Z,4.72
2022-08-03T18:16:33.517Z,4.80
2022-08-03T18:19:09.378Z,4.55
2022-08-03T18:22:03.740Z,4.10
2022-08-03T18:24:30.797Z,4.22
2022-08-03T18:26:59.789Z,4.45
2022-08-03T18:29:31.203Z,5.00
2022-08-03T18:32:03.201Z,5.72
2022-08-03T18:34:34.601Z,5.60
2022-08-03T18:37:07.507Z,5.43
2022-08-03T18:39:57.896Z,4.45
2022-08-03T18:42:26.936Z,4.35
2022-08-03T18:44:56.373Z,5.13
2022-08-03T18:47:57.936Z,4.88
2022-08-03T18:50:34.855Z,4.63
2022-08-03T18:53:21.778Z,4.53
2022-08-03T18:56:15.837Z,4.40
2022-08-03T18:59:02.544Z,5.78
2022-08-03T19:02:00.418Z,4.00
2022-08-03T19:04:36.655Z,4.85
2022-08-03T19:07:09.066Z,4.30
2022-08-03T19:09:46.955Z,4.55
2022-08-03T19:12:28.275Z,4.30
2022-08-03T19:15:05.569Z,3.90
2022-08-03T19:17:53.334Z,3.90
2022-08-03T19:20:26.710Z,4.05
2022-08-03T19:22:56.872Z,3.97
2022-08-03T19:25:34.925Z,4.30
2022-08-03T19:28:05.826Z,4.28
2022-08-03T19:30:40.269Z,4.63
2022-08-03T19:33:13.220Z,4.82
2022-08-03T19:38:28.224Z,4.32
2022-08-03T19:40:59.810Z,4.53
2022-08-03T19:43:52.714Z,3.83
2022-08-03T19:46:30.459Z,4.95
2022-08-03T19:49:10.453Z,5.07
2022-08-03T19:52:02.346Z,4.88
2022-08-03T19:54:53.840Z,4.38
2022-08-03T19:57:25.004Z,4.45
2022-08-03T19:59:53.638Z,4.65
2022-08-03T20:02:26.802Z,4.90
2022-08-03T20:04:57.205Z,4.55
2022-08-03T20:07:26.237Z,4.60
2022-08-03T20:09:56.692Z,4.75
2022-08-03T20:12:29.556Z,5.13
2022-08-03T20:17:55.254Z,5.97
2022-08-03T20:20:13.816Z,5.65
2022-08-03T20:22:45.656Z,5.25
2022-08-03T20:25:20.931Z,6.03
2022-08-03T20:28:07.024Z,5.13
2022-08-03T20:30:36.134Z,5.00
2022-08-03T20:33:04.609Z,5.53
2022-08-03T20:35:33.499Z,4.95
2022-08-03T20:38:00.576Z,5.03
2022-08-03T20:40:27.762Z,5.57
2022-08-03T20:42:56.175Z,4.90
2022-08-03T20:45:59.014Z,5.20
2022-08-03T20:48:10.973Z,5.30
2022-08-03T20:50:41.573Z,4.78
2022-08-03T20:53:12.131Z,5.32
2022-08-03T20:55:48.146Z,5.28
2022-08-03T20:58:27.268Z,5.50
2022-08-03T21:00:56.931Z,5.47
2022-08-03T21:03:26.089Z,4.95
2022-08-03T21:06:12.464Z,4.18
2022-08-03T21:08:46.895Z,4.75
2022-08-03T21:11:19.587Z,4.80
2022-08-03T21:13:55.514Z,4.88
2022-08-03T21:16:27.113Z,4.63
2022-08-03T21:18:55.685Z,5.07
2022-08-03T21:21:23.803Z,4.25
2022-08-03T21:23:54.652Z,5.22
2022-08-03T21:26:24.928Z,5.18
2022-08-03T21:28:54.129Z,4.47
2022-08-03T21:31:25.402Z,4.45
2022-08-03T21:33:59.594Z,4.93
2022-08-03T21:36:28.656Z,4.80
2022-08-03T21:38:57.510Z,4.75
2022-08-03T21:41:30.651Z,5.32
2022-08-03T21:46:27.240Z,4.95
2022-08-03T21:50:05.405Z,5.03
2022-08-03T21:51:49.990Z,5.03
2022-08-03T21:54:20.219Z,4.63
2022-08-03T21:56:51.646Z,5.07
2022-08-03T21:59:20.378Z,4.68
2022-08-03T22:01:51.277Z,4.90
2022-08-03T22:04:50.204Z,4.63
2022-08-03T22:07:10.229Z,5.32
2022-08-03T22:09:37.645Z,5.22
2022-08-03T22:12:05.246Z,5.35
2022-08-03T22:14:35.620Z,4.75
2022-08-03T22:17:07.220Z,4.88
2022-08-03T22:19:35.244Z,4.68
2022-08-03T22:22:06.696Z,5.00
2022-08-03T22:24:36.728Z,6.05
2022-08-03T22:27:24.370Z,5.57
2022-08-03T22:29:53.440Z,5.60
2022-08-03T22:32:24.177Z,4.93
2022-08-03T22:34:54.512Z,5.05
2022-08-03T22:37:26.418Z,5.28
2022-08-03T22:39:53.787Z,5.17
2022-08-03T22:42:22.451Z,5.22
2022-08-03T22:44:52.693Z,5.00
2022-08-03T22:47:22.750Z,5.05
2022-08-03T22:50:31.672Z,5.30
2022-08-03T22:52:42.069Z,5.07
2022-08-03T22:55:18.853Z,5.15
2022-08-03T22:57:55.915Z,4.97
2022-08-03T23:00:24.571Z,5.10
2022-08-03T23:02:54.984Z,5.20
2022-08-03T23:06:02.509Z,4.50
2022-08-03T23:08:18.981Z,4.57
2022-08-03T23:10:49.031Z,5.13
2022-08-03T23:13:26.430Z,5.75
2022-08-03T23:15:58.787Z,6.00
2022-08-03T23:18:32.961Z,7.43
2022-08-03T23:21:10.967Z,6.20
2022-08-03T23:23:44.654Z,5.78
2022-08-03T23:26:13.714Z,6.47
2022-08-03T23:28:45.418Z,6.55
2022-08-03T23:31:14.248Z,6.25
2022-08-03T23:33:45.067Z,7.95
2022-08-03T23:36:31.313Z,8.80
2022-08-03T23:39:02.325Z,7.78
2022-08-03T23:41:32.132Z,8.10
2022-08-03T23:44:03.759Z,7.15
2022-08-03T23:46:31.198Z,7.80
2022-08-03T23:48:59.936Z,6.65
2022-08-03T23:51:36.447Z,6.75
2022-08-03T23:54:19.755Z,7.90
2022-08-03T23:56:52.696Z,6.95
2022-08-03T23:59:58.874Z,7.05
